Oceanside Municipal Airport

About
Name: Oceanside Municipal Airport
Identifier:  /KOKB
Serves:  Northern San Diego County
Operator:  City of Oceanside, Airport Property Ventures
Public/Private:  Public
Local Time:  22. Aug 22:39 PDT
Description: Oceanside Municipal Airport is a public airport located two miles northeast of the central business district of Oceanside, a city in San Diego County, California. The airport covers 43 acres and has one runway. It is mostly used for general aviation. The airport is operated and managed by Airport Property Ventures.
Source: Wikipedia
Location
Runways
Identifier Length (m/ft) Surface
6/24 2,712/2,712 Asphalt
Flights per Day
0 flights
Distance: 387km (240mi)
Punctuality
0% (0 flights per day delayed)
Delay Average: 14 minutes
Current Weather
 20 C (Humidity: 72%)
  5kt (9km/h / 5mph) from 150°
  Overcast at 1,600 feet (487 meter)
  14km (9 mi.)
 METAR KOKB 230452Z AUTO 15005KT 9SM OVC016 20/15 A2980 RMK AO2 SLP091 T02000150

Current Flights

Departures
Number Departure To Airline
Arrivals
Number Arrival From Airline

Current Delays

Departures
N/A
Arrivals
N/A

Destinations

Top Destinations
Airport Flights
per week
Seats
per week
  Oxnard (OXR) 0 - 0 0
  Las Vegas (VGT) 0 - 0 0

Airlines & Planes

Top Airlines
Airline Flights
per Day
Seats
per Day
Jet Charter Inc ( Franklin Lakes Nj ) 0 -
  Flybe Nordic 0 -
Top Plane Types
Model Flights Seats
Piper PA-46-350P Malibu Mirage 0.0/day - 0